createdAt,value
2023-05-21T00:00:25.996Z,945.3356
2023-05-21T00:01:27.417Z,945.3267
2023-05-21T00:02:29.007Z,945.3172
2023-05-21T00:03:30.517Z,945.2989
2023-05-21T00:04:32.927Z,945.2911
2023-05-21T00:05:34.631Z,945.2833
2023-05-21T00:06:36.352Z,945.2645
2023-05-21T00:07:37.760Z,945.2444
2023-05-21T00:08:39.329Z,945.2111
2023-05-21T00:09:40.775Z,945.1816
2023-05-21T00:10:42.238Z,945.1728
2023-05-21T00:11:43.704Z,945.1639
2023-05-21T00:12:45.154Z,945.1517
2023-05-21T00:13:46.546Z,945.1411
2023-05-21T00:14:48.092Z,945.1278
2023-05-21T00:15:49.511Z,945.1222
2023-05-21T00:16:51.090Z,945.1183
2023-05-21T00:17:52.639Z,945.1078
2023-05-21T00:18:54.265Z,945.1000
2023-05-21T00:19:55.683Z,945.0944
2023-05-21T00:20:57.183Z,945.0889
2023-05-21T00:21:58.642Z,945.0828
2023-05-21T00:23:00.246Z,945.0789
2023-05-21T00:24:01.696Z,945.0672
2023-05-21T00:25:03.173Z,945.0550
2023-05-21T00:26:04.700Z,945.0511
2023-05-21T00:27:06.136Z,945.0494
2023-05-21T00:28:07.571Z,945.0344
2023-05-21T00:29:09.000Z,945.0328
2023-05-21T00:30:10.481Z,945.0306
2023-05-21T00:31:12.065Z,945.0322
2023-05-21T00:32:13.639Z,945.0200
2023-05-21T00:33:15.833Z,945.0161
2023-05-21T00:34:17.500Z,945.0161
2023-05-21T00:35:18.974Z,945.0022
2023-05-21T00:36:20.480Z,945.0156
2023-05-21T00:37:22.038Z,945.0117
2023-05-21T00:38:23.541Z,944.9978
2023-05-21T00:39:24.988Z,944.9855
2023-05-21T00:40:26.506Z,944.9672
2023-05-21T00:41:27.963Z,944.9656
2023-05-21T00:42:29.414Z,944.9534
2023-05-21T00:43:30.922Z,944.9528
2023-05-21T00:44:32.459Z,944.9355
2023-05-21T00:45:34.074Z,944.9250
2023-05-21T00:46:35.594Z,944.9244
2023-05-21T00:47:37.088Z,944.9072
2023-05-21T00:48:38.528Z,944.8972
2023-05-21T00:49:40.074Z,944.8872
2023-05-21T00:50:41.500Z,944.8633
2023-05-21T00:51:42.974Z,944.8594
2023-05-21T00:52:44.426Z,944.8605
2023-05-21T00:53:45.987Z,944.8439
2023-05-21T00:54:47.435Z,944.8516
2023-05-21T00:55:49.016Z,944.8461
2023-05-21T00:56:50.438Z,944.8505
2023-05-21T00:57:51.947Z,944.8650
2023-05-21T00:58:53.405Z,944.8716
2023-05-21T00:59:54.957Z,944.8711
2023-05-21T01:00:56.486Z,944.8772
2023-05-21T01:01:58.026Z,944.8789
2023-05-21T01:02:59.506Z,944.8822
2023-05-21T01:04:00.944Z,944.8795
2023-05-21T01:05:02.408Z,944.8795
2023-05-21T01:06:03.852Z,944.8800
2023-05-21T01:07:05.443Z,944.8766
2023-05-21T01:08:06.977Z,944.8734
2023-05-21T01:09:08.484Z,944.8611
2023-05-21T01:10:10.030Z,944.8522
2023-05-21T01:11:11.531Z,944.8478
2023-05-21T01:12:13.031Z,944.8444
2023-05-21T01:13:14.531Z,944.8367
2023-05-21T01:14:16.062Z,944.8284
2023-05-21T01:15:17.587Z,944.8250
2023-05-21T01:16:19.216Z,944.8378
2023-05-21T01:17:20.736Z,944.8478
2023-05-21T01:18:22.133Z,944.8622
2023-05-21T01:19:23.704Z,944.8661
2023-05-21T01:20:25.227Z,944.8800
2023-05-21T01:21:26.685Z,944.8839
2023-05-21T01:22:28.224Z,944.8622
2023-05-21T01:23:29.696Z,944.8583
2023-05-21T01:24:31.318Z,944.8439
2023-05-21T01:25:32.810Z,944.8350
2023-05-21T01:26:34.377Z,944.8267
2023-05-21T01:27:35.867Z,944.8306
2023-05-21T01:28:37.369Z,944.8311
2023-05-21T01:29:38.853Z,944.8494
2023-05-21T01:30:40.382Z,944.8550
2023-05-21T01:31:41.855Z,944.8505
2023-05-21T01:32:43.439Z,944.8400
2023-05-21T01:33:44.958Z,944.8395
2023-05-21T01:34:46.515Z,944.8483
2023-05-21T01:35:47.982Z,944.8339
2023-05-21T01:36:49.540Z,944.8245
2023-05-21T01:37:51.033Z,944.8317
2023-05-21T01:38:52.573Z,944.8322
2023-05-21T01:39:54.049Z,944.8250
2023-05-21T01:40:55.604Z,944.8222
2023-05-21T01:41:57.074Z,944.8267
2023-05-21T01:42:58.550Z,944.8206
2023-05-21T01:44:00.037Z,944.8172
2023-05-21T01:45:01.628Z,944.8083
2023-05-21T01:46:03.064Z,944.8066
2023-05-21T01:47:04.664Z,944.8055
2023-05-21T01:48:07.125Z,944.8016
2023-05-21T01:50:32.728Z,944.7922
2023-05-21T01:50:32.728Z,944.7878
2023-05-21T01:51:34.449Z,944.7800
2023-05-21T01:52:36.185Z,944.7634
2023-05-21T01:53:37.968Z,944.7522
2023-05-21T01:54:39.847Z,944.7472
2023-05-21T01:55:41.649Z,944.7472
2023-05-21T01:56:43.382Z,944.7389
2023-05-21T01:57:45.152Z,944.7389
2023-05-21T01:58:46.862Z,944.7444
2023-05-21T01:59:48.604Z,944.7350
2023-05-21T02:00:50.432Z,944.7344
2023-05-21T02:01:52.250Z,944.7289
2023-05-21T02:02:54.060Z,944.7272
2023-05-21T02:03:56.000Z,944.7150
2023-05-21T02:04:57.770Z,944.7189
2023-05-21T02:05:59.592Z,944.7072
2023-05-21T02:07:01.406Z,944.7006
2023-05-21T02:08:03.216Z,944.6816
2023-05-21T02:09:04.822Z,944.6733
2023-05-21T02:10:06.307Z,944.6495
2023-05-21T02:11:07.853Z,944.6272
2023-05-21T02:12:09.389Z,944.6072
2023-05-21T02:13:10.931Z,944.6039
2023-05-21T02:14:12.385Z,944.6061
2023-05-21T02:15:13.952Z,944.6039
2023-05-21T02:21:24.954Z,944.5800
2023-05-21T02:21:24.954Z,944.6111
2023-05-21T02:21:24.954Z,944.5956
2023-05-21T02:21:53.720Z,944.5800
2023-05-21T02:22:55.505Z,944.5963
2023-05-21T02:23:57.287Z,944.6005
2023-05-21T02:24:59.017Z,944.6100
2023-05-21T02:26:00.878Z,944.6078
2023-05-21T02:27:02.652Z,944.6089
2023-05-21T02:28:04.486Z,944.6028
2023-05-21T02:29:06.312Z,944.5950
2023-05-21T02:30:08.136Z,944.5856
2023-05-21T02:31:09.932Z,944.5789
2023-05-21T02:32:11.603Z,944.5650
2023-05-21T02:33:13.417Z,944.5494
2023-05-21T02:34:15.274Z,944.5284
2023-05-21T02:35:17.054Z,944.5139
2023-05-21T02:42:29.014Z,944.5050
2023-05-21T02:42:29.014Z,944.5122
2023-05-21T02:42:29.014Z,944.5100
2023-05-21T02:43:30.813Z,944.4900
2023-05-21T02:44:32.556Z,944.4839
2023-05-21T02:45:34.318Z,944.4694
2023-05-21T02:46:35.921Z,944.4716
2023-05-21T02:47:37.483Z,944.4916
2023-05-21T02:48:39.023Z,944.5145
2023-05-21T02:49:40.488Z,944.5072
2023-05-21T02:50:41.946Z,944.4989
2023-05-21T02:51:43.562Z,944.5022
2023-05-21T02:52:45.050Z,944.4916
2023-05-21T02:53:46.762Z,944.4928
2023-05-21T02:54:48.651Z,944.5089
2023-05-21T02:55:50.335Z,944.5134
2023-05-21T02:56:52.130Z,944.5117
2023-05-21T02:57:53.861Z,944.4961
2023-05-21T02:58:55.647Z,944.4805
2023-05-21T02:59:57.517Z,944.4905
2023-05-21T03:00:59.267Z,944.4950
2023-05-21T03:02:01.064Z,944.5095
2023-05-21T03:03:02.818Z,944.5117
2023-05-21T03:04:05.576Z,944.5028
2023-05-21T03:05:07.324Z,944.5189
2023-05-21T03:06:09.146Z,944.5284
2023-05-21T03:07:10.877Z,944.5317
2023-05-21T03:08:12.586Z,944.5389
2023-05-21T03:09:14.370Z,944.5405
2023-05-21T03:10:16.122Z,944.5234
2023-05-21T03:11:17.795Z,944.4989
2023-05-21T03:12:20.469Z,944.4839
2023-05-21T03:13:21.894Z,944.4828
2023-05-21T03:14:24.378Z,944.4995
2023-05-21T03:15:26.008Z,944.5122
2023-05-21T03:16:27.465Z,944.5222
2023-05-21T03:17:28.990Z,944.5278
2023-05-21T03:18:31.681Z,944.5378
2023-05-21T03:19:33.539Z,944.5405
2023-05-21T03:20:36.216Z,944.5500
2023-05-21T03:21:37.942Z,944.5656
2023-05-21T03:22:39.722Z,944.5717
2023-05-21T03:23:41.473Z,944.5650
2023-05-21T03:24:43.194Z,944.5550
2023-05-21T03:25:44.955Z,944.5572
2023-05-21T03:33:00.966Z,944.5589
2023-05-21T03:33:00.966Z,944.5600
2023-05-21T03:33:00.966Z,944.5634
2023-05-21T03:33:59.346Z,944.5800
2023-05-21T03:35:01.149Z,944.5847
2023-05-21T03:36:02.923Z,944.5956
2023-05-21T03:37:04.765Z,944.6061
2023-05-21T03:38:06.542Z,944.6089
2023-05-21T03:39:08.279Z,944.6066
2023-05-21T03:40:10.080Z,944.6044
2023-05-21T03:41:11.941Z,944.5950
2023-05-21T03:42:13.641Z,944.5983
2023-05-21T03:43:15.413Z,944.6161
2023-05-21T03:44:17.084Z,944.6194
2023-05-21T03:45:18.598Z,944.6200
2023-05-21T03:46:20.254Z,944.6261
2023-05-21T03:47:21.908Z,944.6289
2023-05-21T03:48:23.446Z,944.6384
2023-05-21T03:49:25.048Z,944.6389
2023-05-21T03:50:26.552Z,944.6439
2023-05-21T03:51:28.127Z,944.6522
2023-05-21T03:52:29.572Z,944.6722
2023-05-21T03:53:30.987Z,944.6816
2023-05-21T03:54:32.478Z,944.6967
2023-05-21T03:55:34.103Z,944.7183
2023-05-21T03:56:35.763Z,944.7250
2023-05-21T03:57:37.419Z,944.7411
2023-05-21T03:58:39.278Z,944.7584
2023-05-21T03:59:41.007Z,944.7717
2023-05-21T04:00:42.866Z,944.8011
2023-05-21T04:01:44.691Z,944.8211
2023-05-21T04:02:46.566Z,944.8256
2023-05-21T04:03:48.544Z,944.8200
2023-05-21T04:04:50.547Z,944.8311
2023-05-21T04:05:52.260Z,944.8378
2023-05-21T04:06:54.089Z,944.8367
2023-05-21T04:07:55.823Z,944.8444
2023-05-21T04:08:57.673Z,944.8550
2023-05-21T04:09:59.214Z,944.8517
2023-05-21T04:11:00.913Z,944.8561
2023-05-21T04:12:02.659Z,944.8666
2023-05-21T04:13:04.405Z,944.8856
2023-05-21T04:14:06.192Z,944.8989
2023-05-21T04:15:08.003Z,944.9133
2023-05-21T04:16:09.810Z,944.9139
2023-05-21T04:17:11.537Z,944.9261
2023-05-21T04:18:13.342Z,944.9250
2023-05-21T04:19:15.070Z,944.9350
2023-05-21T04:20:16.842Z,944.9467
2023-05-21T04:21:18.604Z,944.9461
2023-05-21T04:22:20.452Z,944.9567
2023-05-21T04:23:22.199Z,944.9495
2023-05-21T04:24:23.969Z,944.9506
2023-05-21T04:25:25.796Z,944.9266
2023-05-21T04:26:27.582Z,944.9194
2023-05-21T04:27:29.370Z,944.9400
2023-05-21T04:28:31.172Z,944.9422
2023-05-21T04:29:32.933Z,944.9378
2023-05-21T04:30:34.748Z,944.9389
2023-05-21T04:31:36.523Z,944.9744
2023-05-21T04:32:38.251Z,945.0016
2023-05-21T04:33:39.965Z,945.0195
2023-05-21T04:34:41.674Z,945.0311
2023-05-21T04:35:43.296Z,945.0333
2023-05-21T04:36:45.067Z,945.0284
2023-05-21T04:37:46.691Z,945.0234
2023-05-21T04:38:48.367Z,945.0139
2023-05-21T04:39:49.969Z,945.0145
2023-05-21T04:40:51.703Z,945.0245
2023-05-21T04:41:53.463Z,945.0245
2023-05-21T04:42:55.310Z,945.0539
2023-05-21T04:43:57.101Z,945.0611
2023-05-21T04:44:58.819Z,945.0883
2023-05-21T04:46:00.661Z,945.1239
2023-05-21T04:47:02.575Z,945.1445
2023-05-21T04:48:04.452Z,945.1489
2023-05-21T04:49:20.344Z,945.1616
2023-05-21T04:50:09.191Z,945.1694
2023-05-21T04:51:10.969Z,945.1843
2023-05-21T04:52:12.774Z,945.1866
2023-05-21T04:53:14.553Z,945.1744
2023-05-21T04:54:16.383Z,945.1639
2023-05-21T04:55:18.113Z,945.1589
2023-05-21T04:56:19.909Z,945.1533
2023-05-21T04:57:21.628Z,945.1511
2023-05-21T04:58:23.396Z,945.1578
2023-05-21T04:59:24.838Z,945.1722
2023-05-21T05:00:26.396Z,945.1761
2023-05-21T05:01:27.942Z,945.2072
2023-05-21T05:02:29.551Z,945.2144
2023-05-21T05:03:31.196Z,945.1984
2023-05-21T05:04:32.700Z,945.1878
2023-05-21T05:05:34.539Z,945.2039
2023-05-21T05:06:36.241Z,945.2084
2023-05-21T05:07:37.864Z,945.2084
2023-05-21T05:08:39.393Z,945.2095
2023-05-21T05:09:40.893Z,945.2122
2023-05-21T05:10:42.350Z,945.2222
2023-05-21T05:11:43.777Z,945.2228
2023-05-21T05:12:45.226Z,945.2233
2023-05-21T05:13:46.765Z,945.2322
2023-05-21T05:14:48.316Z,945.2422
2023-05-21T05:15:51.010Z,945.2444
2023-05-21T05:16:50.188Z,945.2484
2023-05-21T05:17:51.676Z,945.2512
2023-05-21T05:18:53.256Z,945.2578
2023-05-21T05:19:55.249Z,945.2634
2023-05-21T05:20:57.052Z,945.2689
2023-05-21T05:21:58.828Z,945.2767
2023-05-21T05:23:00.567Z,945.2955
2023-05-21T05:24:02.383Z,945.3161
2023-05-21T05:25:03.933Z,945.3128
2023-05-21T05:26:05.439Z,945.3089
2023-05-21T05:27:07.043Z,945.3011
2023-05-21T05:28:08.519Z,945.3000
2023-05-21T05:29:10.034Z,945.3150
2023-05-21T05:30:11.727Z,945.3150
2023-05-21T05:31:13.552Z,945.3128
2023-05-21T05:32:15.274Z,945.3172
2023-05-21T05:33:17.094Z,945.3022
2023-05-21T05:34:18.888Z,945.2750
2023-05-21T05:35:20.646Z,945.2717
2023-05-21T05:36:22.461Z,945.2595
2023-05-21T05:37:24.585Z,945.2466
2023-05-21T05:39:44.159Z,945.2817
2023-05-21T05:40:29.892Z,945.2792
2023-05-21T05:41:31.897Z,945.2747
2023-05-21T05:42:33.727Z,945.2717
2023-05-21T05:43:35.555Z,945.2689
2023-05-21T05:44:37.262Z,945.2394
2023-05-21T05:45:39.410Z,945.2394
2023-05-21T05:46:42.411Z,945.2461
2023-05-21T05:47:44.399Z,945.2622
2023-05-21T05:48:46.160Z,945.2867
2023-05-21T05:49:47.946Z,945.3122
2023-05-21T05:50:49.693Z,945.3211
2023-05-21T05:51:51.207Z,945.3072
2023-05-21T05:52:52.945Z,945.3005
2023-05-21T05:53:55.423Z,945.3033
2023-05-21T05:54:57.034Z,945.3089
2023-05-21T05:55:58.615Z,945.3116
2023-05-21T05:57:00.201Z,945.3211
2023-05-21T05:58:01.972Z,945.3172
2023-05-21T05:59:03.481Z,945.3094
2023-05-21T06:00:05.126Z,945.3139
2023-05-21T06:01:06.682Z,945.3178
2023-05-21T06:02:08.214Z,945.3234
2023-05-21T06:03:11.063Z,945.3156
2023-05-21T06:04:18.230Z,945.3044
2023-05-21T06:07:51.861Z,945.3457
2023-05-21T06:07:51.861Z,945.3200
2023-05-21T06:08:30.437Z,945.3400
2023-05-21T06:09:31.872Z,945.3546
2023-05-21T06:10:33.325Z,945.3361
2023-05-21T06:11:34.882Z,945.3367
2023-05-21T06:12:36.386Z,945.3522
2023-05-21T06:13:37.896Z,945.3572
2023-05-21T06:14:39.394Z,945.3655
2023-05-21T06:15:41.071Z,945.3778
2023-05-21T06:16:42.705Z,945.4061
2023-05-21T06:17:44.278Z,945.4205
2023-05-21T06:18:46.153Z,945.4211
2023-05-21T06:19:47.897Z,945.4111
2023-05-21T06:20:49.922Z,945.4011
2023-05-21T06:21:51.776Z,945.3872
2023-05-21T06:22:53.542Z,945.3872
2023-05-21T06:23:55.287Z,945.4039
2023-05-21T06:24:56.999Z,945.4122
2023-05-21T06:25:58.804Z,945.4255
2023-05-21T06:27:00.567Z,945.4322
2023-05-21T06:28:02.380Z,945.4205
2023-05-21T06:29:15.573Z,945.4039
2023-05-21T06:30:04.201Z,945.3989
2023-05-21T06:31:05.946Z,945.4050
2023-05-21T06:32:07.771Z,945.4305
2023-05-21T06:33:09.605Z,945.4316
2023-05-21T06:34:11.363Z,945.4395
2023-05-21T06:35:13.221Z,945.4445
2023-05-21T06:36:14.961Z,945.4500
2023-05-21T06:37:16.728Z,945.4428
2023-05-21T06:38:18.617Z,945.4589
2023-05-21T06:39:20.289Z,945.4816
2023-05-21T06:40:22.047Z,945.4905
2023-05-21T06:41:23.769Z,945.4922
2023-05-21T06:42:25.594Z,945.4744
2023-05-21T06:43:27.413Z,945.4761
2023-05-21T06:44:29.189Z,945.4855
2023-05-21T06:45:30.986Z,945.4850
2023-05-21T06:46:32.879Z,945.4667
2023-05-21T06:47:34.619Z,945.4689
2023-05-21T06:48:37.422Z,945.4427
2023-05-21T06:49:39.249Z,945.4083
2023-05-21T06:50:41.062Z,945.4011
2023-05-21T06:51:42.849Z,945.4100
2023-05-21T06:52:44.584Z,945.4472
2023-05-21T06:53:46.350Z,945.4739
2023-05-21T06:54:48.099Z,945.4995
2023-05-21T06:55:49.854Z,945.5139
2023-05-21T06:56:51.603Z,945.5028
2023-05-21T06:57:53.418Z,945.4944
2023-05-21T06:58:55.183Z,945.4816
2023-05-21T06:59:56.905Z,945.4705
2023-05-21T07:00:58.673Z,945.4778
2023-05-21T07:02:01.378Z,945.4966
2023-05-21T07:03:01.527Z,945.4978
2023-05-21T07:04:03.333Z,945.4888
2023-05-21T07:05:05.059Z,945.4850
2023-05-21T07:06:06.854Z,945.4711
2023-05-21T07:07:08.604Z,945.4822
2023-05-21T07:08:12.010Z,945.5056
2023-05-21T07:09:10.716Z,945.5322
2023-05-21T07:10:12.529Z,945.5471
2023-05-21T07:11:14.233Z,945.5594
2023-05-21T07:12:16.066Z,945.5656
2023-05-21T07:13:17.812Z,945.5667
2023-05-21T07:14:19.591Z,945.5689
2023-05-21T07:15:21.431Z,945.5761
2023-05-21T07:16:23.284Z,945.5850
2023-05-21T07:17:25.022Z,945.5722
2023-05-21T07:18:26.804Z,945.5678
2023-05-21T07:19:28.581Z,945.5522
2023-05-21T07:20:30.398Z,945.5678
2023-05-21T07:21:32.187Z,945.5778
2023-05-21T07:22:33.960Z,945.5922
2023-05-21T07:23:35.676Z,945.5778
2023-05-21T07:24:37.439Z,945.5494
2023-05-21T07:25:39.334Z,945.5317
2023-05-21T07:26:41.109Z,945.5261
2023-05-21T07:27:42.833Z,945.5272
2023-05-21T07:28:44.273Z,945.5145
2023-05-21T07:29:45.755Z,945.5061
2023-05-21T07:30:47.250Z,945.4972
2023-05-21T07:31:48.805Z,945.5028
2023-05-21T07:32:50.378Z,945.4761
2023-05-21T07:33:51.822Z,945.4811
2023-05-21T07:34:54.446Z,945.4805
2023-05-21T07:35:54.288Z,945.4722
2023-05-21T07:36:55.702Z,945.4771
2023-05-21T07:37:57.253Z,945.4639
2023-05-21T07:38:58.846Z,945.4606
2023-05-21T07:40:00.410Z,945.4300
2023-05-21T07:41:01.875Z,945.4133
2023-05-21T07:42:03.451Z,945.4272
2023-05-21T07:43:04.905Z,945.4311
2023-05-21T07:44:06.487Z,945.4272
2023-05-21T07:45:08.023Z,945.4233
2023-05-21T07:46:09.589Z,945.4183
2023-05-21T07:47:11.187Z,945.4144
2023-05-21T07:48:12.659Z,945.4150
2023-05-21T07:49:14.181Z,945.4189
2023-05-21T07:50:15.719Z,945.4200
2023-05-21T07:51:17.165Z,945.4178
2023-05-21T07:52:18.816Z,945.4150
2023-05-21T07:53:20.306Z,945.4183
2023-05-21T07:54:21.969Z,945.4339
2023-05-21T07:55:23.462Z,945.4211
2023-05-21T07:56:24.988Z,945.4200
2023-05-21T07:57:26.485Z,945.4322
2023-05-21T07:58:28.035Z,945.4467
2023-05-21T07:59:29.528Z,945.4522
2023-05-21T08:00:31.096Z,945.4583
2023-05-21T08:01:32.632Z,945.4755
2023-05-21T08:02:34.193Z,945.4739
2023-05-21T08:03:35.753Z,945.4633
2023-05-21T08:04:39.258Z,945.4739
2023-05-21T08:05:39.384Z,945.4961
2023-05-21T08:06:40.941Z,945.4911
2023-05-21T08:07:43.509Z,945.4944
2023-05-21T08:08:44.961Z,945.4961
2023-05-21T08:09:46.454Z,945.4805
2023-05-21T08:10:47.998Z,945.4739
2023-05-21T08:11:49.571Z,945.4733
2023-05-21T08:12:51.205Z,945.4822
2023-05-21T08:13:52.679Z,945.4889
2023-05-21T08:14:54.112Z,945.5011
2023-05-21T08:15:55.618Z,945.5084
2023-05-21T08:16:57.074Z,945.5039
2023-05-21T08:17:58.676Z,945.4822
2023-05-21T08:19:00.154Z,945.4800
2023-05-21T08:20:01.623Z,945.4661
2023-05-21T08:21:03.247Z,945.4495
2023-05-21T08:22:04.725Z,945.4434
2023-05-21T08:23:06.182Z,945.4439
2023-05-21T08:24:07.693Z,945.4522
2023-05-21T08:25:09.155Z,945.4411
2023-05-21T08:26:10.675Z,945.4434
2023-05-21T08:27:12.210Z,945.4606
2023-05-21T08:28:13.728Z,945.4683
2023-05-21T08:29:15.254Z,945.4567
2023-05-21T08:30:16.722Z,945.4350
2023-05-21T08:31:18.196Z,945.4205
2023-05-21T08:32:19.712Z,945.4344
2023-05-21T08:33:21.628Z,945.4294
2023-05-21T08:34:24.157Z,945.4355
2023-05-21T08:35:25.674Z,945.4378
2023-05-21T08:36:27.147Z,945.4261
2023-05-21T08:37:29.701Z,945.4216
2023-05-21T08:38:31.332Z,945.4316
2023-05-21T08:39:32.789Z,945.4456
2023-05-21T08:40:34.382Z,945.4400
2023-05-21T08:41:35.839Z,945.4272
2023-05-21T08:42:37.810Z,945.4316
2023-05-21T08:43:39.323Z,945.4278
2023-05-21T08:44:40.897Z,945.4311
2023-05-21T08:45:42.429Z,945.4300
2023-05-21T08:46:44.252Z,945.4411
2023-05-21T08:47:45.752Z,945.4628
2023-05-21T08:48:47.341Z,945.4722
2023-05-21T08:49:48.880Z,945.4578
2023-05-21T08:50:50.547Z,945.4384
2023-05-21T08:51:52.079Z,945.4244
2023-05-21T08:52:53.678Z,945.4272
2023-05-21T08:53:55.232Z,945.4239
2023-05-21T08:54:56.858Z,945.4272
2023-05-21T08:55:58.362Z,945.4172
2023-05-21T08:56:59.926Z,945.4255
2023-05-21T08:58:01.592Z,945.4333
2023-05-21T08:59:03.137Z,945.4406
2023-05-21T09:00:04.598Z,945.4333
2023-05-21T09:01:06.212Z,945.4078
2023-05-21T09:02:07.615Z,945.4194
2023-05-21T09:03:09.274Z,945.4133
2023-05-21T09:04:20.323Z,945.4233
2023-05-21T09:05:12.566Z,945.4278
2023-05-21T09:06:14.152Z,945.4400
2023-05-21T09:07:15.662Z,945.4600
2023-05-21T09:08:17.270Z,945.4733
2023-05-21T09:09:18.934Z,945.4839
2023-05-21T09:10:20.558Z,945.4872
2023-05-21T09:11:22.074Z,945.4933
2023-05-21T09:12:23.540Z,945.4966
2023-05-21T09:13:25.054Z,945.4733
2023-05-21T09:14:26.518Z,945.4717
2023-05-21T09:15:28.039Z,945.4850
2023-05-21T09:16:29.589Z,945.4989
2023-05-21T09:17:31.185Z,945.5122
2023-05-21T09:18:32.659Z,945.5011
2023-05-21T09:19:34.374Z,945.4811
2023-05-21T09:20:35.890Z,945.5011
2023-05-21T09:21:37.509Z,945.4933
2023-05-21T09:22:39.085Z,945.4800
2023-05-21T09:23:40.721Z,945.4711
2023-05-21T09:24:42.238Z,945.4739
2023-05-21T09:25:43.796Z,945.4633
2023-05-21T09:26:45.289Z,945.4495
2023-05-21T09:27:46.769Z,945.4411
2023-05-21T09:28:48.245Z,945.4328
2023-05-21T09:29:49.763Z,945.4189
2023-05-21T09:30:51.251Z,945.4061
2023-05-21T09:31:52.902Z,945.4078
2023-05-21T09:32:55.246Z,945.3972
2023-05-21T09:33:56.653Z,945.3900
2023-05-21T09:34:58.181Z,945.3872
2023-05-21T09:35:59.832Z,945.3939
2023-05-21T09:37:01.391Z,945.3872
2023-05-21T09:38:02.864Z,945.3961
2023-05-21T09:39:04.642Z,945.3972
2023-05-21T09:40:06.070Z,945.4150
2023-05-21T09:41:07.577Z,945.3950
2023-05-21T09:42:09.141Z,945.3639
2023-05-21T09:43:10.731Z,945.3666
2023-05-21T09:44:12.312Z,945.3828
2023-05-21T09:45:13.800Z,945.3705
2023-05-21T09:46:16.113Z,945.3689
2023-05-21T09:47:17.668Z,945.3689
2023-05-21T09:48:19.172Z,945.3861
2023-05-21T09:49:21.840Z,945.3850
2023-05-21T09:50:22.534Z,945.3539
2023-05-21T09:51:24.011Z,945.3700
2023-05-21T09:52:25.561Z,945.3639
2023-05-21T09:53:27.104Z,945.3689
2023-05-21T09:54:28.705Z,945.3795
2023-05-21T09:55:30.156Z,945.3795
2023-05-21T09:56:31.601Z,945.3994
2023-05-21T09:57:33.105Z,945.3983
2023-05-21T09:58:34.533Z,945.4216
2023-05-21T09:59:36.082Z,945.4350
2023-05-21T10:00:41.363Z,945.4266
2023-05-21T10:01:39.555Z,945.4139
2023-05-21T10:02:41.039Z,945.4041
2023-05-21T10:03:42.542Z,945.4150
2023-05-21T10:04:44.137Z,945.4011
2023-05-21T10:05:45.681Z,945.4294
2023-05-21T10:06:47.109Z,945.4534
2023-05-21T10:07:48.598Z,945.4550
2023-05-21T10:08:50.047Z,945.4600
2023-05-21T10:09:51.512Z,945.4395
2023-05-21T10:10:53.046Z,945.4422
2023-05-21T10:11:54.579Z,945.4311
2023-05-21T10:12:56.103Z,945.4422
2023-05-21T10:13:57.560Z,945.4439
2023-05-21T10:14:59.000Z,945.4500
2023-05-21T10:16:00.514Z,945.4484
2023-05-21T10:17:01.932Z,945.4311
2023-05-21T10:18:03.539Z,945.3850
2023-05-21T10:19:05.087Z,945.3661
2023-05-21T10:20:06.518Z,945.3583
2023-05-21T10:21:07.952Z,945.3389
2023-05-21T10:22:09.436Z,945.3400
2023-05-21T10:23:10.946Z,945.3339
2023-05-21T10:24:12.364Z,945.3516
2023-05-21T10:25:13.806Z,945.3533
2023-05-21T10:26:15.246Z,945.3550
2023-05-21T10:27:16.684Z,945.3422
2023-05-21T10:28:18.145Z,945.3400
2023-05-21T10:29:19.945Z,945.3328
2023-05-21T10:30:21.382Z,945.3267
2023-05-21T10:31:22.832Z,945.3234
2023-05-21T10:32:24.401Z,945.3000
2023-05-21T10:33:25.935Z,945.3039
2023-05-21T10:34:27.325Z,945.2867
2023-05-21T10:35:28.789Z,945.2872
2023-05-21T10:36:30.248Z,945.2783
2023-05-21T10:37:31.705Z,945.2567
2023-05-21T10:38:33.169Z,945.2534
2023-05-21T10:39:34.635Z,945.2361
2023-05-21T10:40:37.059Z,945.2495
2023-05-21T10:41:38.756Z,945.2422
2023-05-21T10:42:40.395Z,945.2516
2023-05-21T10:43:42.092Z,945.2717
2023-05-21T10:44:43.508Z,945.2689
2023-05-21T10:45:45.043Z,945.2600
2023-05-21T10:46:46.540Z,945.2516
2023-05-21T10:47:48.059Z,945.2539
2023-05-21T10:48:50.604Z,945.2511
2023-05-21T10:49:52.129Z,945.2606
2023-05-21T10:50:53.597Z,945.2611
2023-05-21T10:51:55.122Z,945.2350
2023-05-21T10:52:56.640Z,945.2378
2023-05-21T10:53:58.139Z,945.2328
2023-05-21T10:54:59.689Z,945.2067
2023-05-21T10:56:01.128Z,945.2083
2023-05-21T10:57:02.692Z,945.2228
2023-05-21T10:58:04.290Z,945.2267
2023-05-21T10:59:05.761Z,945.2156
2023-05-21T11:00:07.347Z,945.2322
2023-05-21T11:01:08.940Z,945.2394
2023-05-21T11:02:10.523Z,945.2289
2023-05-21T11:03:12.036Z,945.2355
2023-05-21T11:04:13.554Z,945.2167
2023-05-21T11:05:15.055Z,945.2144
2023-05-21T11:06:16.618Z,945.2144
2023-05-21T11:07:18.085Z,945.1939
2023-05-21T11:08:19.610Z,945.1728
2023-05-21T11:09:21.103Z,945.1805
2023-05-21T11:10:22.664Z,945.1861
2023-05-21T11:11:24.140Z,945.1761
2023-05-21T11:12:25.724Z,945.1967
2023-05-21T11:13:27.265Z,945.1961
2023-05-21T11:14:28.803Z,945.2084
2023-05-21T11:15:30.288Z,945.2167
2023-05-21T11:16:31.811Z,945.2305
2023-05-21T11:17:33.272Z,945.2150
2023-05-21T11:18:34.815Z,945.2039
2023-05-21T11:19:36.659Z,945.2022
2023-05-21T11:20:38.463Z,945.1789
2023-05-21T11:21:40.058Z,945.1822
2023-05-21T11:22:41.660Z,945.1772
2023-05-21T11:23:43.196Z,945.1433
2023-05-21T11:24:44.959Z,945.1389
2023-05-21T11:25:46.505Z,945.1322
2023-05-21T11:26:47.955Z,945.1072
2023-05-21T11:27:49.467Z,945.0661
2023-05-21T11:28:50.950Z,945.0645
2023-05-21T11:29:52.453Z,945.0566
2023-05-21T11:30:54.046Z,945.0522
2023-05-21T11:31:55.521Z,945.0594
2023-05-21T11:32:57.166Z,945.0706
2023-05-21T11:33:58.935Z,945.0689
2023-05-21T11:35:00.765Z,945.0539
2023-05-21T11:36:02.446Z,945.0311
2023-05-21T11:37:04.081Z,945.0272
2023-05-21T11:38:05.567Z,945.0383
2023-05-21T11:39:07.134Z,945.0300
2023-05-21T11:40:08.791Z,945.0195
2023-05-21T11:41:10.234Z,945.0034
2023-05-21T11:42:11.679Z,944.9900
2023-05-21T11:43:13.138Z,944.9750
2023-05-21T11:45:49.170Z,944.9372
2023-05-21T11:46:50.736Z,944.9300
2023-05-21T11:47:52.197Z,944.9372
2023-05-21T11:48:53.661Z,944.9139
2023-05-21T11:49:55.183Z,944.9039
2023-05-21T11:50:56.727Z,944.8811
2023-05-21T11:51:58.158Z,944.8950
2023-05-21T11:52:59.934Z,944.8922
2023-05-21T11:54:01.587Z,944.8945
2023-05-21T11:55:03.009Z,944.8956
2023-05-21T11:56:04.511Z,944.8967
2023-05-21T11:57:06.127Z,944.9117
2023-05-21T11:58:07.570Z,944.9078
2023-05-21T11:59:09.083Z,944.8928
2023-05-21T12:00:10.617Z,944.8933
2023-05-21T12:01:12.123Z,944.8900
2023-05-21T12:02:13.651Z,944.9033
2023-05-21T12:03:15.458Z,944.9128
2023-05-21T12:04:16.961Z,944.9316
2023-05-21T12:05:18.692Z,944.9395
2023-05-21T12:06:20.401Z,944.9361
2023-05-21T12:07:21.870Z,944.9495
2023-05-21T12:08:23.316Z,944.9366
2023-05-21T12:09:24.962Z,944.9272
2023-05-21T12:10:26.441Z,944.9222
2023-05-21T12:11:28.253Z,944.9434
2023-05-21T12:12:41.828Z,944.9178
2023-05-21T12:13:30.562Z,944.9061
2023-05-21T12:14:32.068Z,944.9006
2023-05-21T12:17:15.676Z,944.8900
2023-05-21T12:17:35.373Z,944.8922
2023-05-21T12:18:36.835Z,944.8900
2023-05-21T12:19:38.285Z,944.8800